Time;durP1;ratioP1;P1;durP2;ratioP2;P2;SDS_P1;SDS_P2;PMS_P1;PMS_P2;Temp;Humidity;BMP_temperature;BMP_pressure;BME280_temperature;BME280_humidity;BME280_pressure;Samples;Min_cycle;Max_cycle;Signal;HPM_P1;HPM_P2
2023/06/09 00:09:48;;;;;;;15.27;8.95;;;;;;;20.32;100.00;100670.22;20803582;28;20053;-74
2023/06/09 00:20:14;;;;;;;15.45;9.80;;;;;;;20.42;100.00;100661.03;20807515;28;20053;-74
2023/06/09 00:30:37;;;;;;;16.15;10.02;;;;;;;20.41;100.00;100671.81;20808653;28;20107;-74
2023/06/09 00:41:01;;;;;;;13.02;8.93;;;;;;;20.34;100.00;100689.00;20795820;28;20044;-73
2023/06/09 00:51:24;;;;;;;21.60;12.27;;;;;;;20.35;100.00;100688.91;20823440;28;20413;-74
2023/06/09 01:01:48;;;;;;;13.18;10.68;;;;;;;20.29;100.00;100686.38;20823110;28;20494;-74
2023/06/09 01:12:21;;;;;;;16.75;10.40;;;;;;;20.15;100.00;100685.84;20813432;28;20492;-74
2023/06/09 01:22:54;;;;;;;12.75;10.18;;;;;;;20.06;100.00;100689.63;20788765;28;20049;-74
2023/06/09 01:33:22;;;;;;;16.48;10.65;;;;;;;20.04;100.00;100685.22;20826144;28;20046;-74
2023/06/09 01:43:45;;;;;;;14.60;8.97;;;;;;;19.98;100.00;100683.56;20827363;28;20065;-74
2023/06/09 01:54:11;;;;;;;13.88;10.27;;;;;;;19.98;100.00;100671.97;20795728;28;20065;-74
2023/06/09 02:04:36;;;;;;;13.98;9.20;;;;;;;19.70;100.00;100674.41;20801983;28;20056;-74
2023/06/09 02:15:00;;;;;;;12.63;9.88;;;;;;;19.71;100.00;100682.44;20798103;28;20049;-74
2023/06/09 02:25:23;;;;;;;16.10;10.50;;;;;;;19.71;100.00;100682.44;20815423;28;20096;-74
2023/06/09 02:35:47;;;;;;;16.02;9.10;;;;;;;19.69;100.00;100686.06;20803865;28;20486;-74
2023/06/09 02:46:10;;;;;;;13.75;9.13;;;;;;;19.82;100.00;100692.91;20803547;28;20494;-74
2023/06/09 02:56:17;;;;;;;16.67;9.38;;;;;;;19.90;100.00;100699.84;20811378;28;20069;-74
2023/06/09 03:06:49;;;;;;;14.98;9.18;;;;;;;19.96;100.00;100697.91;20795742;28;20057;-73
2023/06/09 03:17:17;;;;;;;15.63;9.25;;;;;;;19.87;100.00;100681.16;20794555;28;20056;-74
2023/06/09 03:27:40;;;;;;;15.52;10.10;;;;;;;19.79;100.00;100685.81;20800557;28;20727;-74
2023/06/09 03:38:04;;;;;;;14.45;9.98;;;;;;;20.04;100.00;100696.81;20814707;28;20041;-74
2023/06/09 03:48:27;;;;;;;12.77;9.13;;;;;;;20.22;100.00;100685.63;20814996;28;20145;-74
2023/06/09 03:58:53;;;;;;;15.68;10.38;;;;;;;20.42;100.00;100690.53;20797797;28;20057;-74
2023/06/09 04:09:16;;;;;;;13.68;8.95;;;;;;;20.60;100.00;100692.75;20796870;28;20456;-74
2023/06/09 04:19:40;;;;;;;13.05;8.43;;;;;;;21.09;100.00;100707.47;20791203;28;20046;-72
2023/06/09 04:30:04;;;;;;;12.68;9.45;;;;;;;21.66;100.00;100720.19;20793206;28;20048;-74
2023/06/09 04:40:29;;;;;;;12.13;7.63;;;;;;;22.22;100.00;100721.06;20805718;28;20148;-74
2023/06/09 04:50:53;;;;;;;13.93;8.23;;;;;;;22.53;100.00;100720.91;20748884;28;20056;-74
2023/06/09 05:01:21;;;;;;;11.95;8.18;;;;;;;22.86;100.00;100730.53;20757275;28;20053;-74
2023/06/09 05:11:45;;;;;;;12.75;8.25;;;;;;;23.41;100.00;100720.44;20798421;28;20057;-74
2023/06/09 05:22:10;;;;;;;16.45;6.50;;;;;;;24.30;100.00;100725.94;20771085;28;20129;-73
2023/06/09 05:32:33;;;;;;;12.07;6.20;;;;;;;24.68;100.00;100733.28;20792653;28;20056;-74
2023/06/09 05:42:58;;;;;;;11.15;5.57;;;;;;;24.77;100.00;100730.22;20820637;28;20128;-73
2023/06/09 05:53:21;;;;;;;13.20;5.00;;;;;;;25.91;100.00;100746.66;20805372;28;20061;-73
2023/06/09 06:03:46;;;;;;;9.45;4.97;;;;;;;26.99;100.00;100735.81;20802594;28;20053;-74
2023/06/09 06:14:09;;;;;;;10.00;5.00;;;;;;;28.08;100.00;100737.03;20772017;28;20059;-74
2023/06/09 06:24:32;;;;;;;9.48;4.68;;;;;;;29.09;100.00;100731.94;20828416;28;20067;-73
2023/06/09 06:34:55;;;;;;;8.88;4.05;;;;;;;29.56;100.00;100739.88;20808320;28;20080;-74
2023/06/09 06:45:19;;;;;;;6.72;3.53;;;;;;;30.02;100.00;100729.66;20793687;28;20111;-74
2023/06/09 06:55:41;;;;;;;11.05;4.68;;;;;;;30.33;100.00;100734.81;20809731;28;20045;-74
2023/06/09 07:06:06;;;;;;;8.30;3.80;;;;;;;30.67;100.00;100732.56;20812189;28;20077;-74
2023/06/09 07:16:31;;;;;;;12.48;3.78;;;;;;;30.24;100.00;100762.69;20812606;28;20061;-73
2023/06/09 07:26:55;;;;;;;9.23;3.88;;;;;;;29.79;100.00;100761.09;20810565;28;20148;-73
2023/06/09 07:37:18;;;;;;;9.98;4.05;;;;;;;30.71;100.00;100767.72;20795570;28;20045;-74
2023/06/09 07:47:43;;;;;;;8.88;3.83;;;;;;;31.01;97.84;100772.03;20793732;28;20192;-73
2023/06/09 07:58:05;;;;;;;8.77;3.83;;;;;;;30.99;92.31;100777.56;20786840;28;20100;-72
2023/06/09 08:08:31;;;;;;;7.90;3.78;;;;;;;31.06;92.55;100772.59;20794350;28;20850;-73
2023/06/09 08:18:54;;;;;;;10.43;4.03;;;;;;;31.16;90.25;100785.50;20785860;28;20096;-73
2023/06/09 08:29:19;;;;;;;8.80;3.80;;;;;;;31.45;88.09;100780.72;20809527;28;20060;-73
2023/06/09 08:39:42;;;;;;;7.65;3.50;;;;;;;31.49;89.42;100779.53;20803596;28;20066;-74
2023/06/09 08:50:08;;;;;;;7.53;3.25;;;;;;;31.76;84.29;100779.44;20797643;28;20541;-73
2023/06/09 09:00:31;;;;;;;7.18;4.05;;;;;;;31.98;79.04;100776.88;20793382;28;20485;-74
2023/06/09 09:10:55;;;;;;;9.48;3.40;;;;;;;32.07;78.03;100778.06;20796202;28;20037;-73
2023/06/09 09:21:22;;;;;;;11.63;3.95;;;;;;;32.31;75.83;100779.00;20794485;28;20049;-74
2023/06/09 09:31:49;;;;;;;6.28;3.50;;;;;;;33.00;76.91;100791.06;20799489;28;20049;-74
2023/06/09 09:42:11;;;;;;;7.97;3.35;;;;;;;32.31;81.26;100789.94;20796063;28;20819;-74
2023/06/09 09:52:36;;;;;;;9.00;3.83;;;;;;;32.22;81.28;100785.19;20814711;28;20049;-74
2023/06/09 10:02:42;;;;;;;;;;;;;;;32.02;88.04;100792.06;20814361;28;20754;-74
2023/06/09 10:13:06;;;;;;;11.02;4.07;;;;;;;32.38;85.25;100780.28;20781641;28;19925;-73
2023/06/09 10:23:30;;;;;;;9.05;3.60;;;;;;;32.37;81.54;100775.81;20803349;28;20053;-75
2023/06/09 10:33:54;;;;;;;9.20;3.72;;;;;;;32.27;79.25;100777.50;20811733;28;20161;-74
2023/06/09 10:44:30;;;;;;;7.43;4.38;;;;;;;32.13;79.21;100779.47;20808294;28;20041;-75
2023/06/09 10:55:13;;;;;;;12.95;4.70;;;;;;;32.65;78.00;100776.47;20815892;28;20055;-74
2023/06/09 11:05:42;;;;;;;8.82;4.10;;;;;;;32.74;77.56;100767.59;20819747;28;20050;-75
2023/06/09 11:16:06;;;;;;;9.30;4.20;;;;;;;33.03;74.14;100763.47;20818212;28;20049;-75
2023/06/09 11:26:29;;;;;;;7.15;3.90;;;;;;;32.97;69.48;100772.16;20817578;28;20056;-75
2023/06/09 11:36:53;;;;;;;8.65;3.75;;;;;;;32.67;69.59;100759.00;20793661;28;20081;-75
2023/06/09 11:47:30;;;;;;;9.40;3.83;;;;;;;32.50;72.67;100774.88;20806437;28;20057;-74
2023/06/09 11:57:55;;;;;;;7.57;3.70;;;;;;;32.07;71.55;100764.41;20807808;28;20060;-75
2023/06/09 12:08:19;;;;;;;;;;;;;;;31.92;69.01;100746.41;20773494;28;20056;-75
2023/06/09 12:18:43;;;;;;;8.85;3.67;;;;;;;32.29;66.69;100740.00;20809581;28;20007;-76
2023/06/09 12:29:06;;;;;;;13.38;3.95;;;;;;;32.29;63.36;100728.19;20797372;28;20049;-75
2023/06/09 12:39:32;;;;;;;10.63;4.10;;;;;;;32.42;62.58;100720.81;20798077;28;20064;-74
2023/06/09 12:49:59;;;;;;;8.13;3.70;;;;;;;32.62;58.95;100714.69;20816023;28;20061;-74
2023/06/09 13:00:23;;;;;;;7.10;3.28;;;;;;;32.87;48.48;100708.22;20810931;28;20061;-74
2023/06/09 13:10:46;;;;;;;7.40;3.33;;;;;;;32.70;49.82;100701.31;20807182;28;20049;-74
2023/06/09 13:21:09;;;;;;;9.63;3.80;;;;;;;32.37;48.28;100707.47;20803776;28;20045;-74
2023/06/09 13:31:32;;;;;;;10.05;3.25;;;;;;;32.21;46.68;100717.84;20817213;28;20053;-74
2023/06/09 13:41:56;;;;;;;10.77;4.07;;;;;;;31.99;49.77;100712.19;20802797;28;20052;-74
2023/06/09 13:52:18;;;;;;;10.43;4.43;;;;;;;31.74;57.54;100701.34;20817245;28;20466;-75
2023/06/09 14:02:43;;;;;;;7.97;4.00;;;;;;;31.69;61.50;100707.16;20802751;28;20064;-74
2023/06/09 14:13:06;;;;;;;7.97;3.38;;;;;;;31.70;59.96;100692.50;20798707;28;20376;-73
2023/06/09 14:23:30;;;;;;;8.45;3.70;;;;;;;31.97;53.66;100692.28;20800975;28;20053;-75
2023/06/09 14:33:52;;;;;;;7.00;3.25;;;;;;;32.27;50.34;100667.31;20808163;28;20160;-75
2023/06/09 14:44:17;;;;;;;7.32;3.63;;;;;;;32.21;48.81;100654.97;20822457;28;20041;-75
2023/06/09 14:54:39;;;;;;;4.95;2.90;;;;;;;32.05;45.34;100651.63;20806760;28;20092;-74
2023/06/09 15:05:03;;;;;;;8.88;2.95;;;;;;;31.71;43.25;100642.34;20820318;28;20513;-74
2023/06/09 15:15:27;;;;;;;9.82;3.35;;;;;;;31.40;42.76;100635.53;20804107;28;20539;-75
2023/06/09 15:25:52;;;;;;;8.07;3.25;;;;;;;30.97;42.87;100640.47;20815704;28;20704;-75
2023/06/09 15:36:15;;;;;;;8.95;3.67;;;;;;;30.35;44.84;100640.22;20797667;28;20088;-74
2023/06/09 15:46:39;;;;;;;7.60;3.33;;;;;;;29.48;48.88;100649.69;20806559;28;20084;-74
2023/06/09 15:57:01;;;;;;;12.35;4.30;;;;;;;28.72;55.10;100652.63;20792025;28;20586;-74
2023/06/09 16:07:26;;;;;;;12.77;4.45;;;;;;;28.33;62.82;100649.63;20801489;28;20052;-74
2023/06/09 16:17:48;;;;;;;10.05;4.68;;;;;;;27.89;71.48;100650.38;20773462;28;20045;-72
2023/06/09 16:28:13;;;;;;;12.48;4.63;;;;;;;27.56;77.75;100653.19;20809606;28;20045;-73
2023/06/09 16:38:38;;;;;;;7.72;3.70;;;;;;;27.23;81.32;100639.63;20775001;28;20038;-73
2023/06/09 16:49:02;;;;;;;8.55;4.03;;;;;;;26.83;88.50;100626.47;20789409;28;20053;-73
2023/06/09 16:59:25;;;;;;;8.93;4.63;;;;;;;26.49;91.44;100627.38;20796695;28;20054;-74
2023/06/09 17:09:49;;;;;;;10.18;4.78;;;;;;;26.20;95.74;100623.41;20795271;28;20380;-74
2023/06/09 17:20:12;;;;;;;7.35;4.63;;;;;;;25.95;98.34;100617.50;20784805;28;20052;-74
2023/06/09 17:30:37;;;;;;;10.85;4.82;;;;;;;25.78;98.70;100626.47;20815763;28;20057;-73
2023/06/09 17:40:41;;;;;;;10.93;4.80;;;;;;;25.40;100.00;100637.25;20822925;28;20046;-74
2023/06/09 17:51:05;;;;;;;10.50;5.28;;;;;;;25.20;100.00;100631.06;20802412;28;20148;-73
2023/06/09 18:01:27;;;;;;;8.82;5.00;;;;;;;24.92;100.00;100642.25;20817232;28;20535;-74
2023/06/09 18:11:52;;;;;;;12.10;4.72;;;;;;;24.71;100.00;100644.06;20814971;28;20557;-73
2023/06/09 18:22:15;;;;;;;10.98;5.53;;;;;;;24.54;100.00;100655.63;20798328;28;20128;-73
2023/06/09 18:32:39;;;;;;;9.20;5.60;;;;;;;24.36;100.00;100660.91;20818996;28;20053;-75
2023/06/09 18:43:01;;;;;;;9.77;5.32;;;;;;;24.20;100.00;100675.06;20803741;28;20056;-74
2023/06/09 18:53:25;;;;;;;13.77;8.60;;;;;;;23.86;100.00;100696.25;20802060;28;20053;-74
2023/06/09 19:03:48;;;;;;;9.95;5.97;;;;;;;23.79;100.00;100706.41;20814201;28;20053;-73
2023/06/09 19:14:12;;;;;;;21.73;14.02;;;;;;;23.56;100.00;100711.81;20803506;28;20053;-73
2023/06/09 19:24:35;;;;;;;13.30;6.53;;;;;;;23.35;100.00;100715.31;20797007;28;20374;-74
2023/06/09 19:34:59;;;;;;;12.18;6.10;;;;;;;23.24;100.00;100721.06;20808965;28;20440;-74
2023/06/09 19:45:22;;;;;;;10.90;5.63;;;;;;;23.21;100.00;100713.13;20779002;28;20052;-74
2023/06/09 19:55:46;;;;;;;33.90;19.95;;;;;;;22.62;100.00;100716.13;20811896;28;20425;-74
2023/06/09 20:06:09;;;;;;;9.13;5.75;;;;;;;22.70;100.00;100705.09;20819776;28;20402;-73
2023/06/09 20:16:33;;;;;;;8.63;5.88;;;;;;;22.58;100.00;100698.28;20806198;28;20042;-73
2023/06/09 20:26:55;;;;;;;12.57;7.60;;;;;;;22.42;100.00;100697.09;20794631;28;20382;-74
2023/06/09 20:37:20;;;;;;;11.73;7.25;;;;;;;22.36;100.00;100691.91;20790306;28;20107;-73
2023/06/09 20:47:43;;;;;;;10.30;6.68;;;;;;;22.16;100.00;100689.91;20801067;28;20049;-73
2023/06/09 20:58:08;;;;;;;10.68;6.05;;;;;;;22.02;100.00;100685.88;20784701;28;20054;-74
2023/06/09 21:08:31;;;;;;;12.32;6.47;;;;;;;21.82;100.00;100682.00;20812755;28;20059;-73
2023/06/09 21:18:55;;;;;;;11.43;5.63;;;;;;;21.96;100.00;100681.59;20827620;28;20055;-74
2023/06/09 21:29:18;;;;;;;10.95;6.72;;;;;;;21.82;100.00;100695.44;20827210;28;20049;-73
2023/06/09 21:39:41;;;;;;;9.65;6.43;;;;;;;21.75;100.00;100675.06;20819467;28;20625;-73
2023/06/09 21:50:04;;;;;;;10.02;6.45;;;;;;;21.52;100.00;100674.03;20826213;28;20053;-74
2023/06/09 22:00:30;;;;;;;8.38;5.57;;;;;;;21.25;100.00;100660.50;20824535;28;20100;-74
2023/06/09 22:10:53;;;;;;;9.68;6.13;;;;;;;21.35;100.00;100650.34;20819313;28;20064;-73
2023/06/09 22:21:17;;;;;;;12.15;6.43;;;;;;;21.33;100.00;100634.28;20815637;28;20402;-74
2023/06/09 22:31:39;;;;;;;10.40;6.35;;;;;;;21.09;100.00;100629.63;20818546;28;20107;-74
2023/06/09 22:42:03;;;;;;;11.65;6.55;;;;;;;21.00;100.00;100638.81;20817284;28;20042;-74
2023/06/09 22:52:26;;;;;;;10.35;6.25;;;;;;;20.93;100.00;100631.91;20816443;28;20498;-74
2023/06/09 23:02:50;;;;;;;11.45;6.60;;;;;;;20.82;100.00;100619.69;20796776;28;20394;-74
2023/06/09 23:13:13;;;;;;;9.98;6.03;;;;;;;20.53;100.00;100620.53;20796896;28;20111;-74
2023/06/09 23:23:38;;;;;;;9.48;6.45;;;;;;;20.46;100.00;100597.47;20818487;28;20045;-73
2023/06/09 23:34:00;;;;;;;11.45;6.00;;;;;;;20.11;100.00;100584.97;20778372;28;20131;-74
2023/06/09 23:44:24;;;;;;;13.50;7.10;;;;;;;20.21;100.00;100589.19;20811500;28;20053;-74
2023/06/09 23:54:46;;;;;;;10.63;7.20;;;;;;;20.24;100.00;100586.41;20813456;28;20061;-73
